sensor_id;sensor_type;location;lat;lon;timestamp;temperature;humidity
25300;DHT22;13241;51.208;4.432;2022-10-16T00:01:28;14.20;99.90
25300;DHT22;13241;51.208;4.432;2022-10-16T00:03:59;14.20;99.90
25300;DHT22;13241;51.208;4.432;2022-10-16T00:06:29;14.10;99.90
25300;DHT22;13241;51.208;4.432;2022-10-16T00:08:57;14.20;99.90
25300;DHT22;13241;51.208;4.432;2022-10-16T00:11:30;14.10;99.90
25300;DHT22;13241;51.208;4.432;2022-10-16T00:14:00;14.20;99.90
25300;DHT22;13241;51.208;4.432;2022-10-16T00:16:28;14.10;99.90
25300;DHT22;13241;51.208;4.432;2022-10-16T00:18:56;14.20;99.90
25300;DHT22;13241;51.208;4.432;2022-10-16T00:21:26;14.10;99.90
25300;DHT22;13241;51.208;4.432;2022-10-16T00:23:56;14.30;99.90
25300;DHT22;13241;51.208;4.432;2022-10-16T00:26:24;14.20;99.90
25300;DHT22;13241;51.208;4.432;2022-10-16T00:28:51;14.10;99.90
25300;DHT22;13241;51.208;4.432;2022-10-16T00:31:20;14.10;99.90
25300;DHT22;13241;51.208;4.432;2022-10-16T00:33:51;14.10;99.90
25300;DHT22;13241;51.208;4.432;2022-10-16T00:36:21;14.10;99.90
25300;DHT22;13241;51.208;4.432;2022-10-16T00:38:50;14.20;99.90
25300;DHT22;13241;51.208;4.432;2022-10-16T00:41:22;14.20;99.90
25300;DHT22;13241;51.208;4.432;2022-10-16T00:43:52;14.20;99.90
25300;DHT22;13241;51.208;4.432;2022-10-16T00:46:21;14.20;99.90
25300;DHT22;13241;51.208;4.432;2022-10-16T00:51:22;14.00;99.90
25300;DHT22;13241;51.208;4.432;2022-10-16T00:53:50;14.00;99.90
25300;DHT22;13241;51.208;4.432;2022-10-16T00:56:19;13.90;99.90
25300;DHT22;13241;51.208;4.432;2022-10-16T00:58:46;13.90;99.90
25300;DHT22;13241;51.208;4.432;2022-10-16T01:01:16;14.00;99.90
25300;DHT22;13241;51.208;4.432;2022-10-16T01:03:44;13.90;99.90
25300;DHT22;13241;51.208;4.432;2022-10-16T01:06:21;13.80;99.90
25300;DHT22;13241;51.208;4.432;2022-10-16T01:09:06;13.90;99.90
25300;DHT22;13241;51.208;4.432;2022-10-16T01:12:06;13.90;99.90
25300;DHT22;13241;51.208;4.432;2022-10-16T01:14:47;13.90;99.90
25300;DHT22;13241;51.208;4.432;2022-10-16T01:18:28;13.80;99.90
25300;DHT22;13241;51.208;4.432;2022-10-16T01:20:32;13.80;99.90
25300;DHT22;13241;51.208;4.432;2022-10-16T01:23:14;13.80;99.90
25300;DHT22;13241;51.208;4.432;2022-10-16T01:28:25;13.70;99.90
25300;DHT22;13241;51.208;4.432;2022-10-16T01:30:55;13.80;99.90
25300;DHT22;13241;51.208;4.432;2022-10-16T01:33:35;13.70;99.90
25300;DHT22;13241;51.208;4.432;2022-10-16T01:36:13;13.70;99.90
25300;DHT22;13241;51.208;4.432;2022-10-16T01:38:44;13.60;99.90
25300;DHT22;13241;51.208;4.432;2022-10-16T01:41:24;13.60;99.90
25300;DHT22;13241;51.208;4.432;2022-10-16T01:43:59;13.60;99.90
25300;DHT22;13241;51.208;4.432;2022-10-16T01:46:28;13.50;99.90
25300;DHT22;13241;51.208;4.432;2022-10-16T01:48:59;13.50;99.90
25300;DHT22;13241;51.208;4.432;2022-10-16T01:51:27;13.40;99.90
25300;DHT22;13241;51.208;4.432;2022-10-16T01:53:58;13.40;99.90
25300;DHT22;13241;51.208;4.432;2022-10-16T01:56:26;13.50;99.90
25300;DHT22;13241;51.208;4.432;2022-10-16T01:59:07;13.50;99.90
25300;DHT22;13241;51.208;4.432;2022-10-16T02:01:41;13.50;99.90
25300;DHT22;13241;51.208;4.432;2022-10-16T02:04:33;13.40;99.90
25300;DHT22;13241;51.208;4.432;2022-10-16T02:07:01;13.40;99.90
25300;DHT22;13241;51.208;4.432;2022-10-16T02:09:28;13.60;99.90
25300;DHT22;13241;51.208;4.432;2022-10-16T02:11:57;13.40;99.90
25300;DHT22;13241;51.208;4.432;2022-10-16T02:14:26;13.30;99.90
25300;DHT22;13241;51.208;4.432;2022-10-16T02:16:55;13.30;99.90
25300;DHT22;13241;51.208;4.432;2022-10-16T02:19:22;13.30;99.90
25300;DHT22;13241;51.208;4.432;2022-10-16T02:22:03;13.30;99.90
25300;DHT22;13241;51.208;4.432;2022-10-16T02:24:41;13.30;99.90
25300;DHT22;13241;51.208;4.432;2022-10-16T02:29:55;13.30;99.90
25300;DHT22;13241;51.208;4.432;2022-10-16T02:32:30;13.30;99.90
25300;DHT22;13241;51.208;4.432;2022-10-16T02:34:58;13.30;99.90
25300;DHT22;13241;51.208;4.432;2022-10-16T02:37:28;13.30;99.90
25300;DHT22;13241;51.208;4.432;2022-10-16T02:39:58;13.30;99.90
25300;DHT22;13241;51.208;4.432;2022-10-16T02:42:33;13.30;99.90
25300;DHT22;13241;51.208;4.432;2022-10-16T02:45:00;13.40;99.90
25300;DHT22;13241;51.208;4.432;2022-10-16T02:47:28;13.50;99.90
25300;DHT22;13241;51.208;4.432;2022-10-16T02:50:00;13.50;99.90
25300;DHT22;13241;51.208;4.432;2022-10-16T02:52:27;13.60;99.90
25300;DHT22;13241;51.208;4.432;2022-10-16T02:54:57;13.50;99.90
25300;DHT22;13241;51.208;4.432;2022-10-16T02:57:25;13.50;99.90
25300;DHT22;13241;51.208;4.432;2022-10-16T02:59:54;13.50;99.90
25300;DHT22;13241;51.208;4.432;2022-10-16T03:02:21;13.50;99.90
25300;DHT22;13241;51.208;4.432;2022-10-16T03:04:50;13.50;99.90
25300;DHT22;13241;51.208;4.432;2022-10-16T03:07:19;13.40;99.90
25300;DHT22;13241;51.208;4.432;2022-10-16T03:09:47;13.40;99.90
25300;DHT22;13241;51.208;4.432;2022-10-16T03:12:14;13.40;99.90
25300;DHT22;13241;51.208;4.432;2022-10-16T03:14:41;13.40;99.90
25300;DHT22;13241;51.208;4.432;2022-10-16T03:17:10;13.40;99.90
25300;DHT22;13241;51.208;4.432;2022-10-16T03:19:39;13.50;99.90
25300;DHT22;13241;51.208;4.432;2022-10-16T03:22:07;13.50;99.90
25300;DHT22;13241;51.208;4.432;2022-10-16T03:24:36;13.40;99.90
25300;DHT22;13241;51.208;4.432;2022-10-16T03:27:02;13.60;99.90
25300;DHT22;13241;51.208;4.432;2022-10-16T03:29:30;13.40;99.90
25300;DHT22;13241;51.208;4.432;2022-10-16T03:32:01;13.40;99.90
25300;DHT22;13241;51.208;4.432;2022-10-16T03:34:30;13.40;99.90
25300;DHT22;13241;51.208;4.432;2022-10-16T03:37:01;13.40;99.90
25300;DHT22;13241;51.208;4.432;2022-10-16T03:39:28;13.50;99.90
25300;DHT22;13241;51.208;4.432;2022-10-16T03:41:55;13.50;99.90
25300;DHT22;13241;51.208;4.432;2022-10-16T03:44:23;13.50;99.90
25300;DHT22;13241;51.208;4.432;2022-10-16T03:46:52;13.40;99.90
25300;DHT22;13241;51.208;4.432;2022-10-16T03:49:19;13.40;99.90
25300;DHT22;13241;51.208;4.432;2022-10-16T03:51:47;13.40;99.90
25300;DHT22;13241;51.208;4.432;2022-10-16T03:54:13;13.40;99.90
25300;DHT22;13241;51.208;4.432;2022-10-16T03:56:40;13.50;99.90
25300;DHT22;13241;51.208;4.432;2022-10-16T03:59:07;13.40;99.90
25300;DHT22;13241;51.208;4.432;2022-10-16T04:01:34;13.50;99.90
25300;DHT22;13241;51.208;4.432;2022-10-16T04:04:01;13.50;99.90
25300;DHT22;13241;51.208;4.432;2022-10-16T04:06:28;13.50;99.90
25300;DHT22;13241;51.208;4.432;2022-10-16T04:08:54;13.50;99.90
25300;DHT22;13241;51.208;4.432;2022-10-16T04:11:21;13.50;99.90
25300;DHT22;13241;51.208;4.432;2022-10-16T04:13:50;13.40;99.90
25300;DHT22;13241;51.208;4.432;2022-10-16T04:16:19;13.40;99.90
25300;DHT22;13241;51.208;4.432;2022-10-16T04:18:45;13.30;99.90
25300;DHT22;13241;51.208;4.432;2022-10-16T04:21:12;13.20;99.90
25300;DHT22;13241;51.208;4.432;2022-10-16T04:23:40;13.20;99.90
25300;DHT22;13241;51.208;4.432;2022-10-16T04:26:08;13.30;99.90
25300;DHT22;13241;51.208;4.432;2022-10-16T04:28:37;13.20;99.90
25300;DHT22;13241;51.208;4.432;2022-10-16T04:31:05;13.20;99.90
25300;DHT22;13241;51.208;4.432;2022-10-16T04:33:33;13.20;99.90
25300;DHT22;13241;51.208;4.432;2022-10-16T04:36:02;13.20;99.90
25300;DHT22;13241;51.208;4.432;2022-10-16T04:38:35;13.20;99.90
25300;DHT22;13241;51.208;4.432;2022-10-16T04:41:07;13.20;99.90
25300;DHT22;13241;51.208;4.432;2022-10-16T04:43:37;13.10;99.90
25300;DHT22;13241;51.208;4.432;2022-10-16T04:46:04;13.10;99.90
25300;DHT22;13241;51.208;4.432;2022-10-16T04:48:35;13.10;99.90
25300;DHT22;13241;51.208;4.432;2022-10-16T04:51:02;13.10;99.90
25300;DHT22;13241;51.208;4.432;2022-10-16T04:53:29;13.10;99.90
25300;DHT22;13241;51.208;4.432;2022-10-16T04:56:00;13.10;99.90
25300;DHT22;13241;51.208;4.432;2022-10-16T04:58:29;13.10;99.90
25300;DHT22;13241;51.208;4.432;2022-10-16T05:00:56;13.00;99.90
25300;DHT22;13241;51.208;4.432;2022-10-16T05:03:24;13.00;99.90
25300;DHT22;13241;51.208;4.432;2022-10-16T05:05:52;13.00;99.90
25300;DHT22;13241;51.208;4.432;2022-10-16T05:08:19;13.00;99.90
25300;DHT22;13241;51.208;4.432;2022-10-16T05:10:46;13.00;99.90
25300;DHT22;13241;51.208;4.432;2022-10-16T05:13:15;13.00;99.90
25300;DHT22;13241;51.208;4.432;2022-10-16T05:15:47;13.00;99.90
25300;DHT22;13241;51.208;4.432;2022-10-16T05:18:15;13.00;99.90
25300;DHT22;13241;51.208;4.432;2022-10-16T05:20:42;13.00;99.90
25300;DHT22;13241;51.208;4.432;2022-10-16T05:23:11;13.00;99.90
25300;DHT22;13241;51.208;4.432;2022-10-16T05:25:39;13.00;99.90
25300;DHT22;13241;51.208;4.432;2022-10-16T05:28:05;13.00;99.90
25300;DHT22;13241;51.208;4.432;2022-10-16T05:30:33;13.00;99.90
25300;DHT22;13241;51.208;4.432;2022-10-16T05:33:02;13.00;99.90
25300;DHT22;13241;51.208;4.432;2022-10-16T05:35:28;12.90;99.90
25300;DHT22;13241;51.208;4.432;2022-10-16T05:37:55;12.90;99.90
25300;DHT22;13241;51.208;4.432;2022-10-16T05:40:22;12.90;99.90
25300;DHT22;13241;51.208;4.432;2022-10-16T05:42:49;12.80;99.90
25300;DHT22;13241;51.208;4.432;2022-10-16T05:45:16;12.80;99.90
25300;DHT22;13241;51.208;4.432;2022-10-16T05:47:43;12.80;99.90
25300;DHT22;13241;51.208;4.432;2022-10-16T05:50:10;12.70;99.90
25300;DHT22;13241;51.208;4.432;2022-10-16T05:52:37;12.80;99.90
25300;DHT22;13241;51.208;4.432;2022-10-16T05:55:05;12.80;99.90
25300;DHT22;13241;51.208;4.432;2022-10-16T05:57:32;12.70;99.90
25300;DHT22;13241;51.208;4.432;2022-10-16T06:00:00;12.70;99.90
25300;DHT22;13241;51.208;4.432;2022-10-16T06:02:38;12.80;99.90
25300;DHT22;13241;51.208;4.432;2022-10-16T06:05:05;12.90;99.90
25300;DHT22;13241;51.208;4.432;2022-10-16T06:07:36;12.90;99.90
25300;DHT22;13241;51.208;4.432;2022-10-16T06:10:04;13.00;99.90
25300;DHT22;13241;51.208;4.432;2022-10-16T06:12:31;13.10;99.90
25300;DHT22;13241;51.208;4.432;2022-10-16T06:14:59;13.10;99.90
25300;DHT22;13241;51.208;4.432;2022-10-16T06:17:26;13.20;99.90
25300;DHT22;13241;51.208;4.432;2022-10-16T06:19:53;13.20;99.90
25300;DHT22;13241;51.208;4.432;2022-10-16T06:22:22;13.30;99.90
25300;DHT22;13241;51.208;4.432;2022-10-16T06:24:49;13.30;99.90
25300;DHT22;13241;51.208;4.432;2022-10-16T06:27:16;13.40;99.90
25300;DHT22;13241;51.208;4.432;2022-10-16T06:29:45;13.50;99.90
25300;DHT22;13241;51.208;4.432;2022-10-16T06:32:12;13.40;99.90
25300;DHT22;13241;51.208;4.432;2022-10-16T06:34:39;13.60;99.90
25300;DHT22;13241;51.208;4.432;2022-10-16T06:37:09;13.40;99.90
25300;DHT22;13241;51.208;4.432;2022-10-16T06:39:36;13.40;99.90
25300;DHT22;13241;51.208;4.432;2022-10-16T06:42:03;13.30;99.90
25300;DHT22;13241;51.208;4.432;2022-10-16T06:44:35;13.30;99.90
25300;DHT22;13241;51.208;4.432;2022-10-16T06:47:01;13.20;99.90
25300;DHT22;13241;51.208;4.432;2022-10-16T06:49:28;13.30;99.90
25300;DHT22;13241;51.208;4.432;2022-10-16T06:51:55;13.40;99.90
25300;DHT22;13241;51.208;4.432;2022-10-16T06:54:22;13.40;99.90
25300;DHT22;13241;51.208;4.432;2022-10-16T06:56:54;13.40;99.90
25300;DHT22;13241;51.208;4.432;2022-10-16T06:59:21;13.50;99.90
25300;DHT22;13241;51.208;4.432;2022-10-16T07:01:48;13.50;99.90
25300;DHT22;13241;51.208;4.432;2022-10-16T07:04:15;13.50;99.90
25300;DHT22;13241;51.208;4.432;2022-10-16T07:06:42;13.60;99.90
25300;DHT22;13241;51.208;4.432;2022-10-16T07:09:10;13.60;99.90
25300;DHT22;13241;51.208;4.432;2022-10-16T07:11:39;13.70;99.90
25300;DHT22;13241;51.208;4.432;2022-10-16T07:14:16;13.70;99.90
25300;DHT22;13241;51.208;4.432;2022-10-16T07:16:45;14.00;99.90
25300;DHT22;13241;51.208;4.432;2022-10-16T07:19:15;13.90;99.90
25300;DHT22;13241;51.208;4.432;2022-10-16T07:21:44;14.00;99.90
25300;DHT22;13241;51.208;4.432;2022-10-16T07:24:16;14.00;99.90
25300;DHT22;13241;51.208;4.432;2022-10-16T07:26:44;14.00;99.90
25300;DHT22;13241;51.208;4.432;2022-10-16T07:29:14;14.00;99.90
25300;DHT22;13241;51.208;4.432;2022-10-16T07:31:42;14.10;99.90
25300;DHT22;13241;51.208;4.432;2022-10-16T07:34:12;14.10;99.90
25300;DHT22;13241;51.208;4.432;2022-10-16T07:36:40;14.20;99.90
25300;DHT22;13241;51.208;4.432;2022-10-16T07:39:08;14.20;99.90
25300;DHT22;13241;51.208;4.432;2022-10-16T07:41:35;14.20;99.90
25300;DHT22;13241;51.208;4.432;2022-10-16T07:44:04;14.40;99.90
25300;DHT22;13241;51.208;4.432;2022-10-16T07:46:31;14.30;99.90
25300;DHT22;13241;51.208;4.432;2022-10-16T07:49:00;14.50;99.90
25300;DHT22;13241;51.208;4.432;2022-10-16T07:51:28;14.60;99.90
25300;DHT22;13241;51.208;4.432;2022-10-16T07:53:55;14.70;99.90
25300;DHT22;13241;51.208;4.432;2022-10-16T07:56:24;14.80;99.90
25300;DHT22;13241;51.208;4.432;2022-10-16T07:58:51;14.80;99.90
25300;DHT22;13241;51.208;4.432;2022-10-16T08:01:20;14.90;99.90
25300;DHT22;13241;51.208;4.432;2022-10-16T08:03:49;15.00;99.90
25300;DHT22;13241;51.208;4.432;2022-10-16T08:06:19;15.10;99.90
25300;DHT22;13241;51.208;4.432;2022-10-16T08:08:55;15.20;99.90
25300;DHT22;13241;51.208;4.432;2022-10-16T08:11:22;15.30;99.90
25300;DHT22;13241;51.208;4.432;2022-10-16T08:13:52;15.30;99.90
25300;DHT22;13241;51.208;4.432;2022-10-16T08:16:20;15.50;99.90
25300;DHT22;13241;51.208;4.432;2022-10-16T08:18:47;15.60;99.90
25300;DHT22;13241;51.208;4.432;2022-10-16T08:21:17;15.60;99.90
25300;DHT22;13241;51.208;4.432;2022-10-16T08:23:47;15.80;99.90
25300;DHT22;13241;51.208;4.432;2022-10-16T08:26:22;15.80;99.90
25300;DHT22;13241;51.208;4.432;2022-10-16T08:28:52;15.90;99.90
25300;DHT22;13241;51.208;4.432;2022-10-16T08:31:20;16.00;99.90
25300;DHT22;13241;51.208;4.432;2022-10-16T08:33:47;16.10;99.90
25300;DHT22;13241;51.208;4.432;2022-10-16T08:36:16;16.20;99.90
25300;DHT22;13241;51.208;4.432;2022-10-16T08:38:43;16.20;99.90
25300;DHT22;13241;51.208;4.432;2022-10-16T08:46:30;16.50;99.90
25300;DHT22;13241;51.208;4.432;2022-10-16T08:49:10;16.60;99.90
25300;DHT22;13241;51.208;4.432;2022-10-16T08:51:39;16.70;99.90
25300;DHT22;13241;51.208;4.432;2022-10-16T08:54:34;16.80;99.90
25300;DHT22;13241;51.208;4.432;2022-10-16T08:57:27;16.90;99.90
25300;DHT22;13241;51.208;4.432;2022-10-16T09:00:08;17.20;99.90
25300;DHT22;13241;51.208;4.432;2022-10-16T09:08:56;17.50;99.90
25300;DHT22;13241;51.208;4.432;2022-10-16T09:23:38;17.90;99.90
25300;DHT22;13241;51.208;4.432;2022-10-16T09:25:49;17.90;99.90
25300;DHT22;13241;51.208;4.432;2022-10-16T09:28:18;18.50;99.90
25300;DHT22;13241;51.208;4.432;2022-10-16T09:30:46;19.40;99.90
25300;DHT22;13241;51.208;4.432;2022-10-16T09:33:28;20.20;99.90
25300;DHT22;13241;51.208;4.432;2022-10-16T09:35:56;20.90;99.90
25300;DHT22;13241;51.208;4.432;2022-10-16T09:38:34;20.90;99.90
25300;DHT22;13241;51.208;4.432;2022-10-16T09:41:20;20.50;99.90
25300;DHT22;13241;51.208;4.432;2022-10-16T09:43:54;20.00;99.90
25300;DHT22;13241;51.208;4.432;2022-10-16T09:46:26;19.70;99.90
25300;DHT22;13241;51.208;4.432;2022-10-16T09:48:59;19.60;99.90
25300;DHT22;13241;51.208;4.432;2022-10-16T09:51:30;19.50;99.90
25300;DHT22;13241;51.208;4.432;2022-10-16T09:56:36;19.50;99.90
25300;DHT22;13241;51.208;4.432;2022-10-16T09:59:29;19.40;99.90
25300;DHT22;13241;51.208;4.432;2022-10-16T10:02:02;19.40;99.90
25300;DHT22;13241;51.208;4.432;2022-10-16T10:04:40;19.50;99.90
25300;DHT22;13241;51.208;4.432;2022-10-16T10:07:17;19.70;99.90
25300;DHT22;13241;51.208;4.432;2022-10-16T10:09:48;19.90;99.90
25300;DHT22;13241;51.208;4.432;2022-10-16T10:12:25;20.00;99.90
25300;DHT22;13241;51.208;4.432;2022-10-16T10:14:58;20.20;99.90
25300;DHT22;13241;51.208;4.432;2022-10-16T10:17:30;20.40;99.90
25300;DHT22;13241;51.208;4.432;2022-10-16T10:19:59;20.60;99.90
25300;DHT22;13241;51.208;4.432;2022-10-16T10:30:44;20.40;99.90
25300;DHT22;13241;51.208;4.432;2022-10-16T10:33:46;20.50;99.90
25300;DHT22;13241;51.208;4.432;2022-10-16T10:36:38;20.70;99.90
25300;DHT22;13241;51.208;4.432;2022-10-16T10:47:29;19.90;99.90
25300;DHT22;13241;51.208;4.432;2022-10-16T10:53:11;19.50;99.90
25300;DHT22;13241;51.208;4.432;2022-10-16T10:55:52;19.80;99.90
25300;DHT22;13241;51.208;4.432;2022-10-16T10:58:57;20.10;99.90
25300;DHT22;13241;51.208;4.432;2022-10-16T11:07:25;20.90;99.90
25300;DHT22;13241;51.208;4.432;2022-10-16T11:09:59;20.80;99.90
25300;DHT22;13241;51.208;4.432;2022-10-16T11:12:55;20.70;99.90
25300;DHT22;13241;51.208;4.432;2022-10-16T11:15:35;20.60;99.90
25300;DHT22;13241;51.208;4.432;2022-10-16T11:18:11;20.20;99.90
25300;DHT22;13241;51.208;4.432;2022-10-16T11:21:06;19.90;99.90
25300;DHT22;13241;51.208;4.432;2022-10-16T11:26:23;19.30;99.90
25300;DHT22;13241;51.208;4.432;2022-10-16T11:28:55;19.00;99.90
25300;DHT22;13241;51.208;4.432;2022-10-16T11:31:46;18.80;99.90
25300;DHT22;13241;51.208;4.432;2022-10-16T11:34:38;18.80;99.90
25300;DHT22;13241;51.208;4.432;2022-10-16T11:37:19;18.70;99.90
25300;DHT22;13241;51.208;4.432;2022-10-16T11:39:47;18.70;99.90
25300;DHT22;13241;51.208;4.432;2022-10-16T11:42:18;18.60;99.90
25300;DHT22;13241;51.208;4.432;2022-10-16T11:44:57;18.60;99.90
25300;DHT22;13241;51.208;4.432;2022-10-16T11:47:35;18.70;99.90
25300;DHT22;13241;51.208;4.432;2022-10-16T11:53:30;19.40;99.90
25300;DHT22;13241;51.208;4.432;2022-10-16T11:55:59;19.80;99.90
25300;DHT22;13241;51.208;4.432;2022-10-16T11:58:29;20.00;99.90
25300;DHT22;13241;51.208;4.432;2022-10-16T12:04:02;20.40;99.90
25300;DHT22;13241;51.208;4.432;2022-10-16T12:06:40;20.40;99.90
25300;DHT22;13241;51.208;4.432;2022-10-16T12:09:30;20.70;99.90
25300;DHT22;13241;51.208;4.432;2022-10-16T12:11:58;20.90;99.90
25300;DHT22;13241;51.208;4.432;2022-10-16T12:14:39;21.00;99.90
25300;DHT22;13241;51.208;4.432;2022-10-16T12:17:36;20.90;99.90
25300;DHT22;13241;51.208;4.432;2022-10-16T12:22:59;20.10;99.90
25300;DHT22;13241;51.208;4.432;2022-10-16T12:25:31;19.80;99.90
25300;DHT22;13241;51.208;4.432;2022-10-16T12:30:41;19.30;99.90
25300;DHT22;13241;51.208;4.432;2022-10-16T12:33:36;19.30;99.90
25300;DHT22;13241;51.208;4.432;2022-10-16T12:36:13;19.30;99.90
25300;DHT22;13241;51.208;4.432;2022-10-16T12:38:50;19.30;99.90
25300;DHT22;13241;51.208;4.432;2022-10-16T12:41:44;19.20;99.90
25300;DHT22;13241;51.208;4.432;2022-10-16T12:44:24;19.10;99.90
25300;DHT22;13241;51.208;4.432;2022-10-16T12:46:52;19.10;99.90
25300;DHT22;13241;51.208;4.432;2022-10-16T12:49:37;19.30;99.90
25300;DHT22;13241;51.208;4.432;2022-10-16T12:52:04;19.50;99.90
25300;DHT22;13241;51.208;4.432;2022-10-16T12:54:36;19.60;99.90
25300;DHT22;13241;51.208;4.432;2022-10-16T12:57:26;19.80;99.90
25300;DHT22;13241;51.208;4.432;2022-10-16T13:00:25;20.00;99.90
25300;DHT22;13241;51.208;4.432;2022-10-16T13:06:15;20.40;99.90
25300;DHT22;13241;51.208;4.432;2022-10-16T13:14:27;20.90;99.90
25300;DHT22;13241;51.208;4.432;2022-10-16T13:28:08;20.90;99.90
25300;DHT22;13241;51.208;4.432;2022-10-16T13:30:52;20.70;99.90
25300;DHT22;13241;51.208;4.432;2022-10-16T13:33:41;20.80;99.90
25300;DHT22;13241;51.208;4.432;2022-10-16T13:36:22;20.70;99.90
25300;DHT22;13241;51.208;4.432;2022-10-16T13:41:37;20.20;99.90
25300;DHT22;13241;51.208;4.432;2022-10-16T13:44:07;20.10;99.90
25300;DHT22;13241;51.208;4.432;2022-10-16T13:46:38;20.10;99.90
25300;DHT22;13241;51.208;4.432;2022-10-16T13:49:16;20.10;99.90
25300;DHT22;13241;51.208;4.432;2022-10-16T13:51:59;20.20;99.90
25300;DHT22;13241;51.208;4.432;2022-10-16T13:54:27;20.40;99.90
25300;DHT22;13241;51.208;4.432;2022-10-16T13:57:05;20.70;99.90
25300;DHT22;13241;51.208;4.432;2022-10-16T13:59:53;20.60;99.90
25300;DHT22;13241;51.208;4.432;2022-10-16T14:02:28;20.50;99.90
25300;DHT22;13241;51.208;4.432;2022-10-16T14:04:57;20.80;99.90
25300;DHT22;13241;51.208;4.432;2022-10-16T14:07:30;21.80;99.90
25300;DHT22;13241;51.208;4.432;2022-10-16T14:10:07;22.50;99.90
25300;DHT22;13241;51.208;4.432;2022-10-16T14:12:44;22.50;99.90
25300;DHT22;13241;51.208;4.432;2022-10-16T14:15:18;22.60;99.90
25300;DHT22;13241;51.208;4.432;2022-10-16T14:17:48;22.50;99.90
25300;DHT22;13241;51.208;4.432;2022-10-16T14:20:17;22.10;99.90
25300;DHT22;13241;51.208;4.432;2022-10-16T14:22:44;22.00;99.90
25300;DHT22;13241;51.208;4.432;2022-10-16T14:25:25;22.00;99.90
25300;DHT22;13241;51.208;4.432;2022-10-16T14:28:02;22.00;99.90
25300;DHT22;13241;51.208;4.432;2022-10-16T14:30:33;22.30;99.90
25300;DHT22;13241;51.208;4.432;2022-10-16T14:36:11;21.90;99.90
25300;DHT22;13241;51.208;4.432;2022-10-16T14:38:42;21.70;99.90
25300;DHT22;13241;51.208;4.432;2022-10-16T14:41:09;21.60;99.90
25300;DHT22;13241;51.208;4.432;2022-10-16T14:43:39;21.90;99.90
25300;DHT22;13241;51.208;4.432;2022-10-16T14:46:13;22.00;99.90
25300;DHT22;13241;51.208;4.432;2022-10-16T14:48:51;21.80;99.90
25300;DHT22;13241;51.208;4.432;2022-10-16T14:51:20;21.40;99.90
25300;DHT22;13241;51.208;4.432;2022-10-16T14:53:47;21.00;99.90
25300;DHT22;13241;51.208;4.432;2022-10-16T14:56:22;20.80;99.90
25300;DHT22;13241;51.208;4.432;2022-10-16T14:58:51;20.50;99.90
25300;DHT22;13241;51.208;4.432;2022-10-16T15:01:19;20.20;99.90
25300;DHT22;13241;51.208;4.432;2022-10-16T15:03:46;20.00;99.90
25300;DHT22;13241;51.208;4.432;2022-10-16T15:06:15;19.90;99.90
25300;DHT22;13241;51.208;4.432;2022-10-16T15:08:42;19.80;99.90
25300;DHT22;13241;51.208;4.432;2022-10-16T15:11:19;19.70;99.90
25300;DHT22;13241;51.208;4.432;2022-10-16T15:13:46;19.60;99.90
25300;DHT22;13241;51.208;4.432;2022-10-16T15:16:25;19.40;99.90
25300;DHT22;13241;51.208;4.432;2022-10-16T15:18:52;19.30;99.90
25300;DHT22;13241;51.208;4.432;2022-10-16T15:21:30;19.40;99.90
25300;DHT22;13241;51.208;4.432;2022-10-16T15:23:58;19.30;99.90
25300;DHT22;13241;51.208;4.432;2022-10-16T15:26:27;19.00;99.90
25300;DHT22;13241;51.208;4.432;2022-10-16T15:28:55;19.20;99.90
25300;DHT22;13241;51.208;4.432;2022-10-16T15:31:22;19.10;99.90
25300;DHT22;13241;51.208;4.432;2022-10-16T15:33:51;19.00;99.90
25300;DHT22;13241;51.208;4.432;2022-10-16T15:36:34;19.00;99.90
25300;DHT22;13241;51.208;4.432;2022-10-16T15:39:04;19.20;99.90
25300;DHT22;13241;51.208;4.432;2022-10-16T15:41:32;19.00;99.90
25300;DHT22;13241;51.208;4.432;2022-10-16T15:43:58;19.00;99.90
25300;DHT22;13241;51.208;4.432;2022-10-16T15:46:25;18.80;99.90
25300;DHT22;13241;51.208;4.432;2022-10-16T15:48:57;18.90;99.90
25300;DHT22;13241;51.208;4.432;2022-10-16T15:51:25;18.90;99.90
25300;DHT22;13241;51.208;4.432;2022-10-16T15:53:59;18.80;99.90
25300;DHT22;13241;51.208;4.432;2022-10-16T15:56:28;18.80;99.90
25300;DHT22;13241;51.208;4.432;2022-10-16T15:58:56;18.70;99.90
25300;DHT22;13241;51.208;4.432;2022-10-16T16:01:24;18.60;99.90
25300;DHT22;13241;51.208;4.432;2022-10-16T16:03:55;18.60;99.90
25300;DHT22;13241;51.208;4.432;2022-10-16T16:06:22;18.50;99.90
25300;DHT22;13241;51.208;4.432;2022-10-16T16:08:51;18.40;99.90
25300;DHT22;13241;51.208;4.432;2022-10-16T16:11:19;18.40;99.90
25300;DHT22;13241;51.208;4.432;2022-10-16T16:13:46;18.60;99.90
25300;DHT22;13241;51.208;4.432;2022-10-16T16:16:15;18.30;99.90
25300;DHT22;13241;51.208;4.432;2022-10-16T16:18:42;18.40;99.90
25300;DHT22;13241;51.208;4.432;2022-10-16T16:21:11;18.30;99.90
25300;DHT22;13241;51.208;4.432;2022-10-16T16:23:38;18.20;99.90
25300;DHT22;13241;51.208;4.432;2022-10-16T16:26:08;18.20;99.90
25300;DHT22;13241;51.208;4.432;2022-10-16T16:28:36;18.20;99.90
25300;DHT22;13241;51.208;4.432;2022-10-16T16:31:03;18.20;99.90
25300;DHT22;13241;51.208;4.432;2022-10-16T16:33:32;18.10;99.90
25300;DHT22;13241;51.208;4.432;2022-10-16T16:36:00;18.10;99.90
25300;DHT22;13241;51.208;4.432;2022-10-16T16:38:27;18.30;99.90
25300;DHT22;13241;51.208;4.432;2022-10-16T16:40:55;18.10;99.90
25300;DHT22;13241;51.208;4.432;2022-10-16T16:43:26;18.00;99.90
25300;DHT22;13241;51.208;4.432;2022-10-16T16:45:54;18.00;99.90
25300;DHT22;13241;51.208;4.432;2022-10-16T16:48:21;17.90;99.90
25300;DHT22;13241;51.208;4.432;2022-10-16T16:50:48;18.00;99.90
25300;DHT22;13241;51.208;4.432;2022-10-16T16:53:15;18.00;99.90
25300;DHT22;13241;51.208;4.432;2022-10-16T16:55:42;18.00;99.90
25300;DHT22;13241;51.208;4.432;2022-10-16T16:58:09;17.90;99.90
25300;DHT22;13241;51.208;4.432;2022-10-16T17:00:36;17.90;99.90
25300;DHT22;13241;51.208;4.432;2022-10-16T17:03:03;17.90;99.90
25300;DHT22;13241;51.208;4.432;2022-10-16T17:05:29;17.80;99.90
25300;DHT22;13241;51.208;4.432;2022-10-16T17:07:56;17.80;99.90
25300;DHT22;13241;51.208;4.432;2022-10-16T17:10:23;17.70;99.90
25300;DHT22;13241;51.208;4.432;2022-10-16T17:12:50;17.80;99.90
25300;DHT22;13241;51.208;4.432;2022-10-16T17:15:17;17.70;99.90
25300;DHT22;13241;51.208;4.432;2022-10-16T17:17:44;17.80;99.90
25300;DHT22;13241;51.208;4.432;2022-10-16T17:20:12;17.80;99.90
25300;DHT22;13241;51.208;4.432;2022-10-16T17:22:38;17.90;99.90
25300;DHT22;13241;51.208;4.432;2022-10-16T17:25:11;17.70;99.90
25300;DHT22;13241;51.208;4.432;2022-10-16T17:27:38;17.70;99.90
25300;DHT22;13241;51.208;4.432;2022-10-16T17:30:05;17.70;99.90
25300;DHT22;13241;51.208;4.432;2022-10-16T17:32:33;17.70;99.90
25300;DHT22;13241;51.208;4.432;2022-10-16T17:35:00;17.70;99.90
25300;DHT22;13241;51.208;4.432;2022-10-16T17:37:27;17.50;99.90